Time;durP1;ratioP1;P1;durP2;ratioP2;P2;SDS_P1;SDS_P2;PMS_P1;PMS_P2;Temp;Humidity;BMP_temperature;BMP_pressure;BME280_temperature;BME280_humidity;BME280_pressure;Samples;Min_cycle;Max_cycle;Signal;HPM_P1;HPM_P2
2021/11/19 00:01:58;;;;;;;;;;;;;;;;;;112126;1265;9686;-78
2021/11/19 00:04:32;;;;;;;;;;;;;;;;;;112089;1265;7989;-77
2021/11/19 00:07:01;;;;;;;;;;;;;;;;;;112157;1267;8254;-77
2021/11/19 00:09:33;;;;;;;;;;;;;;;;;;112011;1265;8481;-77
2021/11/19 00:12:03;;;;;;;;;;;;;;;;;;112128;1263;8759;-77
2021/11/19 00:14:35;;;;;;;;;;;;;;;;;;112173;1265;8034;-76
2021/11/19 00:17:05;;;;;;;;;;;;;;;;;;112080;1267;9681;-77
2021/11/19 00:19:41;;;;;;;;;;;;;;;;;;112277;1266;8384;-76
2021/11/19 00:22:14;;;;;;;;;;;;;;;;;;112042;1265;9677;-76
2021/11/19 00:24:55;;;;;;;;;;;;;;;;;;112174;1266;8911;-76
2021/11/19 00:27:25;;;;;;;;;;;;;;;;;;111998;1268;7949;-77
2021/11/19 00:29:58;;;;;;;;;;;;;;;;;;111989;1268;8364;-77
2021/11/19 00:32:26;;;;;;;;;;;;;;;;;;112145;1266;8946;-78
2021/11/19 00:34:58;;;;;;;;;;;;;;;;;;112022;1269;9176;-77
2021/11/19 00:37:30;;;;;;;;;;;;;;;;;;112141;1267;8822;-77
2021/11/19 00:40:01;;;;;;;;;;;;;;;;;;112138;1265;9006;-78
2021/11/19 00:42:34;;;;;;;;;;;;;;;;;;112108;1267;9681;-78
2021/11/19 00:45:03;;;;;;;;;;;;;;;;;;112137;1267;8769;-77
2021/11/19 00:47:36;;;;;;;;;;;;;;;;;;112043;1266;8002;-77
2021/11/19 00:50:08;;;;;;;;;;;;;;;;;;112112;1268;9126;-76
2021/11/19 00:52:36;;;;;;;;;;;;;;;;;;112106;1268;7955;-77
2021/11/19 00:55:09;;;;;;;;;;;;;;;;;;112015;1268;9693;-77
2021/11/19 00:57:38;;;;;;;;;;;;;;;;;;112137;1265;8623;-76
2021/11/19 01:00:09;;;;;;;;;;;;;;;;;;112086;1267;8921;-76
2021/11/19 01:02:39;;;;;;;;;;;;;;;;;;112132;1267;7990;-77
2021/11/19 01:05:10;;;;;;;;;;;;;;;;;;112085;1266;9697;-77
2021/11/19 01:07:42;;;;;;;;;;;;;;;;;;112007;1267;8764;-77
2021/11/19 01:10:18;;;;;;;;;;;;;;;;;;112016;1268;8363;-78
2021/11/19 01:12:46;;;;;;;;;;;;;;;;;;111999;1267;9025;-77
2021/11/19 01:15:18;;;;;;;;;;;;;;;;;;112125;1266;9691;-76
2021/11/19 01:17:51;;;;;;;;;;;;;;;;;;112115;1266;8006;-77
2021/11/19 01:20:42;;;;;;;;;;;;;;;;;;112025;1266;8821;-77
2021/11/19 01:23:12;;;;;;;;;;;;;;;;;;112051;1267;7980;-75
2021/11/19 01:25:45;;;;;;;;;;;;;;;;;;111991;1268;9703;-76
2021/11/19 01:28:14;;;;;;;;;;;;;;;;;;112126;1267;8143;-76
2021/11/19 01:30:52;;;;;;;;;;;;;;;;;;112124;1267;9699;-76
2021/11/19 01:33:20;;;;;;;;;;;;;;;;;;112150;1267;8924;-76
2021/11/19 01:36:27;;;;;;;;;;;;;;;;;;112140;1267;8820;-78
2021/11/19 01:39:16;;;;;;;;;;;;;;;;;;112141;1267;8005;-79
2021/11/19 01:42:28;;;;;;;;;;;;;;;;;;112150;1267;7972;-78
2021/11/19 01:45:17;;;;;;;;;;;;;;;;;;112069;1267;8773;-77
2021/11/19 01:47:46;;;;;;;;;;;;;;;;;;112109;1267;8986;-77
2021/11/19 01:50:28;;;;;;;;;;;;;;;;;;112131;1267;9690;-77
2021/11/19 01:53:13;;;;;;;;;;;;;;;;;;112109;1267;9710;-77
2021/11/19 01:56:03;;;;;;;;;;;;;;;;;;112128;1268;8036;-78
2021/11/19 01:58:46;;;;;;;;;;;;;;;;;;112084;1267;8786;-76
2021/11/19 02:01:25;;;;;;;;;;;;;;;;;;112126;1268;8273;-78
2021/11/19 02:03:56;;;;;;;;;;;;;;;;;;111989;1266;8747;-78
2021/11/19 02:06:31;;;;;;;;;;;;;;;;;;112149;1263;7995;-77
2021/11/19 02:09:23;;;;;;;;;;;;;;;;;;112105;1267;8024;-77
2021/11/19 02:12:08;;;;;;;;;;;;;;;;;;112176;1267;8781;-77
2021/11/19 02:14:47;;;;;;;;;;;;;;;;;;112129;1267;8037;-76
2021/11/19 02:17:19;;;;;;;;;;;;;;;;;;112130;1267;8005;-78
2021/11/19 02:19:52;;;;;;;;;;;;;;;;;;112112;1267;8352;-77
2021/11/19 02:22:24;;;;;;;;;;;;;;;;;;111991;1268;9026;-78
2021/11/19 02:25:03;;;;;;;;;;;;;;;;;;112008;1268;8811;-77
2021/11/19 02:27:39;;;;;;;;;;;;;;;;;;112168;1263;8706;-77
2021/11/19 02:30:15;;;;;;;;;;;;;;;;;;112024;1266;8792;-78
2021/11/19 02:32:51;;;;;;;;;;;;;;;;;;112114;1267;9694;-76
2021/11/19 02:35:23;;;;;;;;;;;;;;;;;;111994;1268;8829;-76
2021/11/19 02:37:54;;;;;;;;;;;;;;;;;;112104;1268;9703;-77
2021/11/19 02:40:33;;;;;;;;;;;;;;;;;;111999;1268;9697;-76
2021/11/19 02:43:16;;;;;;;;;;;;;;;;;;112110;1267;8846;-76
2021/11/19 02:45:49;;;;;;;;;;;;;;;;;;112128;1267;8745;-76
2021/11/19 02:48:28;;;;;;;;;;;;;;;;;;112149;1267;9680;-77
2021/11/19 02:50:58;;;;;;;;;;;;;;;;;;112158;1265;9680;-78
2021/11/19 02:53:27;;;;;;;;;;;;;;;;;;112082;1267;8050;-75
2021/11/19 02:55:58;;;;;;;;;;;;;;;;;;112088;1266;9697;-76
2021/11/19 02:58:31;;;;;;;;;;;;;;;;;;112129;1267;8027;-76
2021/11/19 03:01:08;;;;;;;;;;;;;;;;;;112103;1267;8362;-77
2021/11/19 03:03:42;;;;;;;;;;;;;;;;;;112119;1267;9697;-77
2021/11/19 03:06:12;;;;;;;;;;;;;;;;;;112019;1268;9040;-76
2021/11/19 03:08:47;;;;;;;;;;;;;;;;;;112022;1268;8994;-76
2021/11/19 03:11:19;;;;;;;;;;;;;;;;;;112134;1267;9676;-75
2021/11/19 03:13:48;;;;;;;;;;;;;;;;;;111995;1267;8859;-75
2021/11/19 03:16:16;;;;;;;;;;;;;;;;;;112015;1268;7989;-74
2021/11/19 03:18:44;;;;;;;;;;;;;;;;;;112115;1268;9678;-75
2021/11/19 03:21:15;;;;;;;;;;;;;;;;;;112044;1267;8763;-75
2021/11/19 03:23:47;;;;;;;;;;;;;;;;;;112110;1267;7987;-75
2021/11/19 03:26:17;;;;;;;;;;;;;;;;;;112134;1267;9704;-75
2021/11/19 03:28:46;;;;;;;;;;;;;;;;;;112133;1264;7951;-74
2021/11/19 03:31:15;;;;;;;;;;;;;;;;;;112145;1267;8774;-74
2021/11/19 03:33:44;;;;;;;;;;;;;;;;;;111990;1270;9720;-76
2021/11/19 03:36:14;;;;;;;;;;;;;;;;;;112014;1268;7989;-74
2021/11/19 03:38:44;;;;;;;;;;;;;;;;;;112005;1269;8775;-74
2021/11/19 03:41:13;;;;;;;;;;;;;;;;;;111946;1269;9700;-75
2021/11/19 03:43:50;;;;;;;;;;;;;;;;;;111940;1268;8867;-75
2021/11/19 03:46:22;;;;;;;;;;;;;;;;;;112109;1268;8976;-75
2021/11/19 03:48:50;;;;;;;;;;;;;;;;;;111964;1270;7985;-75
2021/11/19 03:51:26;;;;;;;;;;;;;;;;;;111971;1270;8452;-76
2021/11/19 03:53:55;;;;;;;;;;;;;;;;;;112115;1267;9750;-76
2021/11/19 03:56:23;;;;;;;;;;;;;;;;;;112031;1267;8774;-73
2021/11/19 03:58:52;;;;;;;;;;;;;;;;;;112073;1267;7993;-75
2021/11/19 04:01:26;;;;;;;;;;;;;;;;;;112058;1267;9713;-75
2021/11/19 04:03:55;;;;;;;;;;;;;;;;;;112069;1268;9677;-76
2021/11/19 04:06:24;;;;;;;;;;;;;;;;;;112139;1266;9508;-75
2021/11/19 04:08:53;;;;;;;;;;;;;;;;;;112020;1265;7990;-73
2021/11/19 04:11:23;;;;;;;;;;;;;;;;;;112146;1263;9671;-74
2021/11/19 04:13:53;;;;;;;;;;;;;;;;;;112154;1264;7938;-76
2021/11/19 04:16:28;;;;;;;;;;;;;;;;;;112153;1267;8913;-75
2021/11/19 04:18:56;;;;;;;;;;;;;;;;;;112104;1267;9697;-76
2021/11/19 04:21:25;;;;;;;;;;;;;;;;;;112104;1268;8024;-75
2021/11/19 04:23:55;;;;;;;;;;;;;;;;;;112167;1262;8027;-76
2021/11/19 04:26:27;;;;;;;;;;;;;;;;;;112127;1263;7947;-76
2021/11/19 04:28:56;;;;;;;;;;;;;;;;;;112128;1266;8921;-75
2021/11/19 04:31:43;;;;;;;;;;;;;;;;;;112096;1268;8872;-73
2021/11/19 04:34:12;;;;;;;;;;;;;;;;;;112024;1268;9681;-74
2021/11/19 04:36:40;;;;;;;;;;;;;;;;;;112147;1266;7974;-74
2021/11/19 04:39:10;;;;;;;;;;;;;;;;;;111980;1265;174143;-75
2021/11/19 04:41:38;;;;;;;;;;;;;;;;;;112016;1268;9704;-75
2021/11/19 04:44:06;;;;;;;;;;;;;;;;;;112035;1268;8585;-72
2021/11/19 04:46:41;;;;;;;;;;;;;;;;;;112129;1268;9681;-74
2021/11/19 04:49:09;;;;;;;;;;;;;;;;;;112000;1268;8001;-75
2021/11/19 04:51:39;;;;;;;;;;;;;;;;;;112169;1267;8927;-73
2021/11/19 04:54:08;;;;;;;;;;;;;;;;;;112130;1266;9649;-75
2021/11/19 04:56:38;;;;;;;;;;;;;;;;;;112095;1267;8797;-75
2021/11/19 04:59:06;;;;;;;;;;;;;;;;;;112125;1267;9678;-73
2021/11/19 05:01:36;;;;;;;;;;;;;;;;;;112151;1267;8899;-75
2021/11/19 05:04:07;;;;;;;;;;;;;;;;;;112157;1265;9783;-75
2021/11/19 05:06:36;;;;;;;;;;;;;;;;;;112134;1267;9567;-76
2021/11/19 05:09:05;;;;;;;;;;;;;;;;;;112076;1266;7920;-74
2021/11/19 05:11:41;;;;;;;;;;;;;;;;;;112105;1267;9781;-75
2021/11/19 05:14:13;;;;;;;;;;;;;;;;;;112125;1267;8047;-74
2021/11/19 05:16:43;;;;;;;;;;;;;;;;;;112143;1267;9116;-76
2021/11/19 05:19:11;;;;;;;;;;;;;;;;;;112135;1266;8925;-73
2021/11/19 05:21:41;;;;;;;;;;;;;;;;;;112148;1267;7947;-75
2021/11/19 05:24:10;;;;;;;;;;;;;;;;;;112116;1265;10158;-75
2021/11/19 05:26:40;;;;;;;;;;;;;;;;;;112004;1267;8917;-75
2021/11/19 05:29:09;;;;;;;;;;;;;;;;;;112113;1267;7989;-74
2021/11/19 05:31:38;;;;;;;;;;;;;;;;;;112149;1267;9698;-75
2021/11/19 05:34:11;;;;;;;;;;;;;;;;;;112114;1267;8518;-75
2021/11/19 05:36:40;;;;;;;;;;;;;;;;;;112016;1268;9684;-75
2021/11/19 05:39:09;;;;;;;;;;;;;;;;;;112121;1267;8117;-74
2021/11/19 05:41:42;;;;;;;;;;;;;;;;;;112024;1268;8225;-75
2021/11/19 05:44:11;;;;;;;;;;;;;;;;;;112026;1268;9694;-74
2021/11/19 05:47:12;;;;;;;;;;;;;;;;;;112043;1267;8793;-73
2021/11/19 05:49:42;;;;;;;;;;;;;;;;;;112049;1268;8008;-75
2021/11/19 05:52:11;;;;;;;;;;;;;;;;;;112021;1268;9698;-75
2021/11/19 05:54:41;;;;;;;;;;;;;;;;;;111996;1267;9032;-76
2021/11/19 05:57:10;;;;;;;;;;;;;;;;;;111981;1270;7975;-75
2021/11/19 05:59:39;;;;;;;;;;;;;;;;;;112114;1265;9681;-75
2021/11/19 06:02:11;;;;;;;;;;;;;;;;;;112126;1263;8804;-75
2021/11/19 06:04:56;;;;;;;;;;;;;;;;;;112113;1267;7996;-77
2021/11/19 06:07:48;;;;;;;;;;;;;;;;;;111544;1267;8781;-76
2021/11/19 06:10:18;;;;;;;;;;;;;;;;;;112046;1268;9687;-75
2021/11/19 06:12:49;;;;;;;;;;;;;;;;;;112119;1266;8085;-75
2021/11/19 06:15:19;;;;;;;;;;;;;;;;;;112030;1267;8904;-77
2021/11/19 06:17:50;;;;;;;;;;;;;;;;;;112103;1267;7973;-75
2021/11/19 06:20:22;;;;;;;;;;;;;;;;;;112097;1265;9677;-75
2021/11/19 06:23:02;;;;;;;;;;;;;;;;;;112142;1265;8774;-76
2021/11/19 06:25:34;;;;;;;;;;;;;;;;;;112090;1267;8469;-77
2021/11/19 06:28:05;;;;;;;;;;;;;;;;;;112112;1267;8145;-76
2021/11/19 06:30:34;;;;;;;;;;;;;;;;;;112132;1267;8792;-79
2021/11/19 06:33:02;;;;;;;;;;;;;;;;;;112114;1267;9681;-76
2021/11/19 06:35:31;;;;;;;;;;;;;;;;;;112153;1263;8143;-77
2021/11/19 06:38:00;;;;;;;;;;;;;;;;;;112258;1262;8777;-76
2021/11/19 06:40:45;;;;;;;;;;;;;;;;;;112138;1265;9677;-76
2021/11/19 06:43:34;;;;;;;;;;;;;;;;;;111771;1263;7992;-76
2021/11/19 06:46:22;;;;;;;;;;;;;;;;;;111936;1265;8390;-78
2021/11/19 06:49:10;;;;;;;;;;;;;;;;;;112103;1265;8734;-76
2021/11/19 06:51:56;;;;;;;;;;;;;;;;;;112138;1262;8772;-76
2021/11/19 06:54:47;;;;;;;;;;;;;;;;;;112161;1262;8401;-76
2021/11/19 06:57:35;;;;;;;;;;;;;;;;;;112136;1263;8802;-74
2021/11/19 07:00:07;;;;;;;;;;;;;;;;;;112214;1265;8967;-75
2021/11/19 07:02:35;;;;;;;;;;;;;;;;;;112096;1265;8008;-73
2021/11/19 07:05:04;;;;;;;;;;;;;;;;;;112171;1263;9720;-73
2021/11/19 07:07:35;;;;;;;;;;;;;;;;;;112107;1265;9250;-79
2021/11/19 07:10:08;;;;;;;;;;;;;;;;;;112049;1263;8534;-77
2021/11/19 07:12:37;;;;;;;;;;;;;;;;;;112142;1264;9736;-77
2021/11/19 07:15:09;;;;;;;;;;;;;;;;;;112157;1263;10107;-76
2021/11/19 07:17:37;;;;;;;;;;;;;;;;;;112121;1265;9688;-77
2021/11/19 07:20:12;;;;;;;;;;;;;;;;;;112130;1262;7967;-78
2021/11/19 07:22:42;;;;;;;;;;;;;;;;;;112020;1265;9023;-77
2021/11/19 07:25:12;;;;;;;;;;;;;;;;;;112104;1265;8008;-79
2021/11/19 07:27:41;;;;;;;;;;;;;;;;;;112089;1265;9680;-81
2021/11/19 07:30:16;;;;;;;;;;;;;;;;;;111930;1266;8777;-77
2021/11/19 07:33:02;;;;;;;;;;;;;;;;;;112137;1265;8771;-74
2021/11/19 07:35:32;;;;;;;;;;;;;;;;;;112077;1265;8372;-74
2021/11/19 07:38:20;;;;;;;;;;;;;;;;;;112125;1264;8776;-74
2021/11/19 07:41:08;;;;;;;;;;;;;;;;;;112152;1263;7992;-77
2021/11/19 07:43:56;;;;;;;;;;;;;;;;;;111701;1266;8775;-73
2021/11/19 07:46:35;;;;;;;;;;;;;;;;;;112112;1263;10091;-71
2021/11/19 07:49:06;;;;;;;;;;;;;;;;;;112119;1263;7996;-74
2021/11/19 07:51:38;;;;;;;;;;;;;;;;;;112186;1263;8793;-71
2021/11/19 07:54:10;;;;;;;;;;;;;;;;;;112113;1266;9678;-74
2021/11/19 07:56:40;;;;;;;;;;;;;;;;;;112109;1265;9697;-73
2021/11/19 07:59:13;;;;;;;;;;;;;;;;;;112138;1267;9678;-73
2021/11/19 08:01:42;;;;;;;;;;;;;;;;;;112130;1266;8933;-74
2021/11/19 08:04:10;;;;;;;;;;;;;;;;;;112124;1266;9691;-71
2021/11/19 08:06:40;;;;;;;;;;;;;;;;;;112128;1265;8405;-73
2021/11/19 08:09:52;;;;;;;;;;;;;;;;;;112092;1262;8743;-73
2021/11/19 08:12:37;;;;;;;;;;;;;;;;;;112162;1265;9591;-74
2021/11/19 08:15:26;;;;;;;;;;;;;;;;;;112144;1265;8787;-75
2021/11/19 08:17:56;;;;;;;;;;;;;;;;;;111972;1262;9733;-73
2021/11/19 08:20:29;;;;;;;;;;;;;;;;;;112074;1266;8357;-74
2021/11/19 08:22:59;;;;;;;;;;;;;;;;;;112093;1267;8436;-73
2021/11/19 08:25:27;;;;;;;;;;;;;;;;;;112134;1263;8496;-72
2021/11/19 08:27:56;;;;;;;;;;;;;;;;;;112125;1265;9678;-74
2021/11/19 08:30:30;;;;;;;;;;;;;;;;;;112130;1265;8439;-73
2021/11/19 08:33:02;;;;;;;;;;;;;;;;;;112084;1263;7999;-72
2021/11/19 08:35:34;;;;;;;;;;;;;;;;;;112143;1262;9678;-75
2021/11/19 08:38:06;;;;;;;;;;;;;;;;;;112128;1267;9697;-73
2021/11/19 08:40:45;;;;;;;;;;;;;;;;;;112162;1265;9678;-80
2021/11/19 08:43:23;;;;;;;;;;;;;;;;;;112085;1263;9667;-76
2021/11/19 08:45:53;;;;;;;;;;;;;;;;;;112111;1267;9774;-78
2021/11/19 08:48:25;;;;;;;;;;;;;;;;;;112110;1267;8348;-80
2021/11/19 08:50:55;;;;;;;;;;;;;;;;;;112015;1267;7960;-78
2021/11/19 08:53:24;;;;;;;;;;;;;;;;;;112125;1267;8777;-78
2021/11/19 08:55:57;;;;;;;;;;;;;;;;;;112060;1265;8374;-76
2021/11/19 08:58:28;;;;;;;;;;;;;;;;;;112139;1265;8772;-81
2021/11/19 09:00:57;;;;;;;;;;;;;;;;;;112075;1267;8740;-77
2021/11/19 09:03:27;;;;;;;;;;;;;;;;;;112021;1266;9729;-77
2021/11/19 09:06:01;;;;;;;;;;;;;;;;;;112118;1266;7980;-77
2021/11/19 09:08:32;;;;;;;;;;;;;;;;;;112128;1266;9721;-79
2021/11/19 09:11:01;;;;;;;;;;;;;;;;;;112141;1266;7938;-77
2021/11/19 09:13:34;;;;;;;;;;;;;;;;;;112135;1265;9251;-78
2021/11/19 09:16:14;;;;;;;;;;;;;;;;;;112124;1266;8766;-79
2021/11/19 09:18:46;;;;;;;;;;;;;;;;;;112155;1265;9691;-78
2021/11/19 09:21:14;;;;;;;;;;;;;;;;;;111956;1267;9684;-78
2021/11/19 09:23:55;;;;;;;;;;;;;;;;;;112096;1267;8354;-79
2021/11/19 09:26:34;;;;;;;;;;;;;;;;;;112110;1267;9674;-79
2021/11/19 09:29:05;;;;;;;;;;;;;;;;;;112131;1267;7969;-76
2021/11/19 09:31:37;;;;;;;;;;;;;;;;;;112173;1262;8092;-79
2021/11/19 09:34:18;;;;;;;;;;;;;;;;;;111987;1266;8922;-81
2021/11/19 09:36:47;;;;;;;;;;;;;;;;;;111578;1265;9704;-81
2021/11/19 09:39:22;;;;;;;;;;;;;;;;;;111841;1265;9710;-85
2021/11/19 09:41:56;;;;;;;;;;;;;;;;;;111944;1265;8352;-77
2021/11/19 09:44:43;;;;;;;;;;;;;;;;;;111904;1262;9736;-78
2021/11/19 09:47:54;;;;;;;;;;;;;;;;;;112157;1265;9704;-77
2021/11/19 09:50:22;;;;;;;;;;;;;;;;;;111961;1267;8251;-79
2021/11/19 09:53:11;;;;;;;;;;;;;;;;;;112103;1265;9677;-80
2021/11/19 09:55:47;;;;;;;;;;;;;;;;;;112113;1264;8186;-81
2021/11/19 09:58:25;;;;;;;;;;;;;;;;;;112082;1265;8756;-84
2021/11/19 10:01:00;;;;;;;;;;;;;;;;;;112092;1267;8700;-82
2021/11/19 10:03:51;;;;;;;;;;;;;;;;;;112273;1265;8337;-84
2021/11/19 10:06:30;;;;;;;;;;;;;;;;;;111975;1265;9678;-85
2021/11/19 10:09:16;;;;;;;;;;;;;;;;;;112041;1263;8030;-82
2021/11/19 10:11:57;;;;;;;;;;;;;;;;;;111946;1262;8485;-83
2021/11/19 10:14:51;;;;;;;;;;;;;;;;;;112101;1263;8961;-80
2021/11/19 10:17:44;;;;;;;;;;;;;;;;;;112026;1267;9711;-85
2021/11/19 10:20:33;;;;;;;;;;;;;;;;;;111746;1267;8123;-86
2021/11/19 10:23:11;;;;;;;;;;;;;;;;;;112026;1265;7997;-83
2021/11/19 10:26:01;;;;;;;;;;;;;;;;;;111936;1267;8760;-81
2021/11/19 10:28:46;;;;;;;;;;;;;;;;;;112041;1266;8035;-77
2021/11/19 10:31:20;;;;;;;;;;;;;;;;;;112037;1267;8912;-79
2021/11/19 10:33:57;;;;;;;;;;;;;;;;;;112071;1265;8747;-85
2021/11/19 10:36:25;;;;;;;;;;;;;;;;;;112066;1265;8053;-80
2021/11/19 10:39:13;;;;;;;;;;;;;;;;;;112122;1267;9686;-79
2021/11/19 10:42:01;;;;;;;;;;;;;;;;;;112054;1268;9023;-78
2021/11/19 10:44:41;;;;;;;;;;;;;;;;;;111991;1262;8780;-79
2021/11/19 10:47:18;;;;;;;;;;;;;;;;;;112050;1265;9800;-80
2021/11/19 10:50:06;;;;;;;;;;;;;;;;;;111984;1265;8801;-78
2021/11/19 10:52:57;;;;;;;;;;;;;;;;;;112149;1265;8986;-79
2021/11/19 10:55:38;;;;;;;;;;;;;;;;;;112129;1265;8385;-81
2021/11/19 10:58:13;;;;;;;;;;;;;;;;;;111977;1268;9050;-79
2021/11/19 11:01:01;;;;;;;;;;;;;;;;;;112101;1265;9676;-74
2021/11/19 11:03:34;;;;;;;;;;;;;;;;;;111982;1265;8794;-77
2021/11/19 11:06:08;;;;;;;;;;;;;;;;;;112164;1265;8454;-77
2021/11/19 11:08:38;;;;;;;;;;;;;;;;;;112157;1262;8679;-77
2021/11/19 11:11:13;;;;;;;;;;;;;;;;;;112198;1263;8354;-79
2021/11/19 11:14:20;;;;;;;;;;;;;;;;;;112161;1262;8925;-76
2021/11/19 11:16:50;;;;;;;;;;;;;;;;;;111716;1268;9698;-82
2021/11/19 11:19:26;;;;;;;;;;;;;;;;;;111812;1268;9692;-82
2021/11/19 11:21:54;;;;;;;;;;;;;;;;;;112061;1265;8200;-79
2021/11/19 11:24:53;;;;;;;;;;;;;;;;;;112071;1263;9697;-83
2021/11/19 11:31:37;;;;;;;;;;;;;;;;;;111791;1262;8683;-82
2021/11/19 11:34:14;;;;;;;;;;;;;;;;;;112021;1267;9714;-78
2021/11/19 11:36:58;;;;;;;;;;;;;;;;;;111988;1262;8061;-81
2021/11/19 11:39:35;;;;;;;;;;;;;;;;;;111882;1265;8213;-81
2021/11/19 11:42:14;;;;;;;;;;;;;;;;;;111972;1263;9683;-80
2021/11/19 11:44:48;;;;;;;;;;;;;;;;;;112081;1265;8908;-82
2021/11/19 11:47:39;;;;;;;;;;;;;;;;;;112031;1265;8004;-85
2021/11/19 11:50:17;;;;;;;;;;;;;;;;;;112011;1265;8820;-78
2021/11/19 11:53:18;;;;;;;;;;;;;;;;;;111856;1263;8909;-80
2021/11/19 11:56:06;;;;;;;;;;;;;;;;;;111443;1268;9794;-82
2021/11/19 11:58:46;;;;;;;;;;;;;;;;;;112140;1265;8758;-82
2021/11/19 12:01:25;;;;;;;;;;;;;;;;;;112047;1266;8401;-81
2021/11/19 12:04:16;;;;;;;;;;;;;;;;;;111974;1266;9196;-80
2021/11/19 12:07:02;;;;;;;;;;;;;;;;;;111594;1265;8112;-78
2021/11/19 12:09:54;;;;;;;;;;;;;;;;;;111951;1268;8436;-79
2021/11/19 12:12:34;;;;;;;;;;;;;;;;;;111942;1267;8409;-80
2021/11/19 12:15:04;;;;;;;;;;;;;;;;;;112001;1267;9041;-79
2021/11/19 12:17:45;;;;;;;;;;;;;;;;;;112143;1267;9694;-79
2021/11/19 12:20:33;;;;;;;;;;;;;;;;;;112024;1268;8142;-78
2021/11/19 12:23:26;;;;;;;;;;;;;;;;;;111741;1268;9687;-76
2021/11/19 12:26:21;;;;;;;;;;;;;;;;;;111810;1267;9675;-81
2021/11/19 12:29:01;;;;;;;;;;;;;;;;;;112044;1267;7999;-86
2021/11/19 12:31:37;;;;;;;;;;;;;;;;;;111993;1265;8443;-80
2021/11/19 12:34:23;;;;;;;;;;;;;;;;;;111870;1266;8512;-84
2021/11/19 12:36:57;;;;;;;;;;;;;;;;;;111681;1265;343202;-82
2021/11/19 12:39:27;;;;;;;;;;;;;;;;;;111851;1265;8395;-86
2021/11/19 12:41:56;;;;;;;;;;;;;;;;;;112133;1263;8485;-84
2021/11/19 12:44:50;;;;;;;;;;;;;;;;;;112040;1265;7969;-83
2021/11/19 12:47:18;;;;;;;;;;;;;;;;;;112091;1265;8564;-81
2021/11/19 12:49:51;;;;;;;;;;;;;;;;;;111951;1265;10208;-79
2021/11/19 12:52:25;;;;;;;;;;;;;;;;;;111879;1265;8627;-78
2021/11/19 12:55:34;;;;;;;;;;;;;;;;;;112149;1265;8175;-81
2021/11/19 12:58:32;;;;;;;;;;;;;;;;;;112138;1264;7993;-82
2021/11/19 13:01:23;;;;;;;;;;;;;;;;;;111913;1267;8792;-80
2021/11/19 13:03:52;;;;;;;;;;;;;;;;;;112094;1265;8400;-82
2021/11/19 13:06:30;;;;;;;;;;;;;;;;;;112094;1266;8021;-86
2021/11/19 13:09:06;;;;;;;;;;;;;;;;;;112110;1268;8869;-77
2021/11/19 13:12:11;;;;;;;;;;;;;;;;;;112103;1267;7984;-80
2021/11/19 13:14:46;;;;;;;;;;;;;;;;;;112178;1262;9741;-82
2021/11/19 13:17:15;;;;;;;;;;;;;;;;;;112124;1265;8769;-82
2021/11/19 13:19:43;;;;;;;;;;;;;;;;;;111926;1265;8145;-79
2021/11/19 13:22:21;;;;;;;;;;;;;;;;;;112004;1265;7978;-84
2021/11/19 13:24:50;;;;;;;;;;;;;;;;;;112155;1266;9680;-80
2021/11/19 13:27:18;;;;;;;;;;;;;;;;;;111951;1263;8049;-82
2021/11/19 13:30:05;;;;;;;;;;;;;;;;;;111939;1262;8836;-79
2021/11/19 13:32:33;;;;;;;;;;;;;;;;;;111985;1268;9677;-78
2021/11/19 13:35:16;;;;;;;;;;;;;;;;;;111887;1263;8904;-80
2021/11/19 13:38:12;;;;;;;;;;;;;;;;;;;;;
2021/11/19 13:40:45;;;;;;;;;;;;;;;;;;112133;1263;8786;-76
2021/11/19 13:43:16;;;;;;;;;;;;;;;;;;112086;1266;10137;-76
2021/11/19 13:45:56;;;;;;;;;;;;;;;;;;111930;1265;9684;-77
2021/11/19 13:49:28;;;;;;;;;;;;;;;;;;112096;1265;8206;-85
2021/11/19 13:53:19;;;;;;;;;;;;;;;;;;111995;1265;8163;-80
2021/11/19 13:56:21;;;;;;;;;;;;;;;;;;111967;1265;9040;-82
2021/11/19 13:59:15;;;;;;;;;;;;;;;;;;112045;1265;9977;-79
2021/11/19 14:01:54;;;;;;;;;;;;;;;;;;112046;1263;8457;-83
2021/11/19 14:04:48;;;;;;;;;;;;;;;;;;;;;
2021/11/19 14:08:11;;;;;;;;;;;;;;;;;;111975;1266;8766;-79
2021/11/19 14:11:13;;;;;;;;;;;;;;;;;;111910;1262;8960;-87
2021/11/19 14:13:43;;;;;;;;;;;;;;;;;;112077;1265;8279;-78
2021/11/19 14:16:18;;;;;;;;;;;;;;;;;;112086;1265;8772;-78
2021/11/19 14:19:06;;;;;;;;;;;;;;;;;;111881;1266;8436;-81
2021/11/19 14:22:08;;;;;;;;;;;;;;;;;;112113;1263;9549;-80
2021/11/19 14:25:05;;;;;;;;;;;;;;;;;;112154;1265;8133;-70
2021/11/19 14:27:41;;;;;;;;;;;;;;;;;;112351;1262;8377;-72
2021/11/19 14:30:20;;;;;;;;;;;;;;;;;;112082;1263;9703;-70
2021/11/19 14:33:14;;;;;;;;;;;;;;;;;;;;;
2021/11/19 14:35:54;;;;;;;;;;;;;;;;;;112102;1263;8773;-76
2021/11/19 14:38:43;;;;;;;;;;;;;;;;;;112156;1262;8778;-78
2021/11/19 14:41:38;;;;;;;;;;;;;;;;;;112236;1263;8417;-77
2021/11/19 14:44:33;;;;;;;;;;;;;;;;;;112065;1265;8751;-77
2021/11/19 14:47:12;;;;;;;;;;;;;;;;;;111994;1268;8801;-77
2021/11/19 14:49:44;;;;;;;;;;;;;;;;;;112082;1265;9678;-75
2021/11/19 14:52:22;;;;;;;;;;;;;;;;;;112038;1266;9688;-84
2021/11/19 14:55:18;;;;;;;;;;;;;;;;;;112135;1265;8070;-77
2021/11/19 14:58:19;;;;;;;;;;;;;;;;;;112286;1265;7961;-79
2021/11/19 15:00:57;;;;;;;;;;;;;;;;;;112009;1262;8360;-77
2021/11/19 15:03:50;;;;;;;;;;;;;;;;;;112049;1267;8783;-77
2021/11/19 15:06:35;;;;;;;;;;;;;;;;;;112016;1267;9776;-79
2021/11/19 15:09:14;;;;;;;;;;;;;;;;;;111972;1266;10211;-80
2021/11/19 15:12:13;;;;;;;;;;;;;;;;;;112045;1265;8757;-79
2021/11/19 15:15:18;;;;;;;;;;;;;;;;;;111799;1269;8950;-78
2021/11/19 15:18:09;;;;;;;;;;;;;;;;;;111997;1267;8759;-78
2021/11/19 15:20:41;;;;;;;;;;;;;;;;;;111983;1265;7973;-84
2021/11/19 15:23:33;;;;;;;;;;;;;;;;;;111997;1267;7978;-83
2021/11/19 15:26:26;;;;;;;;;;;;;;;;;;112044;1265;9688;-83
2021/11/19 15:29:28;;;;;;;;;;;;;;;;;;111707;1269;9747;-82
2021/11/19 15:32:55;;;;;;;;;;;;;;;;;;111828;1265;9395;-84
2021/11/19 15:35:29;;;;;;;;;;;;;;;;;;111875;1268;9733;-78
2021/11/19 15:38:31;;;;;;;;;;;;;;;;;;111941;1263;8482;-85
2021/11/19 15:41:21;;;;;;;;;;;;;;;;;;111932;1265;8314;-76
2021/11/19 15:44:12;;;;;;;;;;;;;;;;;;111889;1263;9704;-82
2021/11/19 15:46:42;;;;;;;;;;;;;;;;;;112105;1265;8372;-80
2021/11/19 15:49:12;;;;;;;;;;;;;;;;;;112033;1265;8921;-77
2021/11/19 15:51:55;;;;;;;;;;;;;;;;;;112106;1265;8364;-77
2021/11/19 15:54:24;;;;;;;;;;;;;;;;;;112005;1267;8002;-85
2021/11/19 15:57:18;;;;;;;;;;;;;;;;;;112014;1267;9696;-79
2021/11/19 15:59:46;;;;;;;;;;;;;;;;;;111674;1268;9695;-79
2021/11/19 16:02:29;;;;;;;;;;;;;;;;;;112070;1265;8074;-81
2021/11/19 16:05:26;;;;;;;;;;;;;;;;;;112120;1263;9691;-84
2021/11/19 16:08:20;;;;;;;;;;;;;;;;;;111434;1270;8781;-81
2021/11/19 16:11:00;;;;;;;;;;;;;;;;;;112051;1263;8438;-82
2021/11/19 16:13:46;;;;;;;;;;;;;;;;;;112133;1266;8024;-83
2021/11/19 16:16:25;;;;;;;;;;;;;;;;;;112118;1265;9678;-77
2021/11/19 16:18:56;;;;;;;;;;;;;;;;;;112001;1264;9703;-79
2021/11/19 16:21:48;;;;;;;;;;;;;;;;;;112150;1265;7948;-77
2021/11/19 16:24:34;;;;;;;;;;;;;;;;;;112173;1266;8494;-75
2021/11/19 16:27:16;;;;;;;;;;;;;;;;;;112144;1267;8038;-77
2021/11/19 16:29:52;;;;;;;;;;;;;;;;;;112140;1267;9677;-77
2021/11/19 16:32:40;;;;;;;;;;;;;;;;;;112176;1263;9681;-79
2021/11/19 16:35:14;;;;;;;;;;;;;;;;;;112124;1263;8958;-79
2021/11/19 16:38:03;;;;;;;;;;;;;;;;;;112078;1265;8847;-79
2021/11/19 16:40:45;;;;;;;;;;;;;;;;;;111951;1265;9019;-83
2021/11/19 16:43:23;;;;;;;;;;;;;;;;;;112030;1265;7994;-84
2021/11/19 16:45:51;;;;;;;;;;;;;;;;;;112127;1265;8360;-78
2021/11/19 16:48:21;;;;;;;;;;;;;;;;;;112223;1265;8319;-82
2021/11/19 16:50:52;;;;;;;;;;;;;;;;;;112114;1265;9674;-84
2021/11/19 16:53:22;;;;;;;;;;;;;;;;;;112001;1266;8948;-85
2021/11/19 16:55:51;;;;;;;;;;;;;;;;;;111938;1265;8156;-83
2021/11/19 16:58:22;;;;;;;;;;;;;;;;;;112088;1266;7972;-82
2021/11/19 17:00:56;;;;;;;;;;;;;;;;;;111965;1266;9674;-80
2021/11/19 17:03:30;;;;;;;;;;;;;;;;;;112076;1266;8370;-82
2021/11/19 17:06:24;;;;;;;;;;;;;;;;;;112131;1266;8602;-79
2021/11/19 17:09:04;;;;;;;;;;;;;;;;;;112130;1266;8045;-83
2021/11/19 17:11:32;;;;;;;;;;;;;;;;;;111927;1267;8464;-79
2021/11/19 17:14:10;;;;;;;;;;;;;;;;;;111975;1269;9687;-82
2021/11/19 17:16:38;;;;;;;;;;;;;;;;;;111972;1267;9677;-78
2021/11/19 17:19:09;;;;;;;;;;;;;;;;;;112175;1267;8835;-76
2021/11/19 17:21:41;;;;;;;;;;;;;;;;;;112123;1265;9943;-84
2021/11/19 17:24:13;;;;;;;;;;;;;;;;;;112074;1265;9447;-81
2021/11/19 17:26:44;;;;;;;;;;;;;;;;;;112028;1267;9069;-81
2021/11/19 17:29:17;;;;;;;;;;;;;;;;;;111979;1269;8794;-79
2021/11/19 17:31:45;;;;;;;;;;;;;;;;;;112043;1266;7999;-81
2021/11/19 17:34:21;;;;;;;;;;;;;;;;;;112058;1266;9700;-83
2021/11/19 17:36:53;;;;;;;;;;;;;;;;;;112006;1269;8791;-84
2021/11/19 17:39:33;;;;;;;;;;;;;;;;;;111759;1267;9684;-85
2021/11/19 17:42:01;;;;;;;;;;;;;;;;;;111886;1267;8937;-87
2021/11/19 17:44:31;;;;;;;;;;;;;;;;;;111896;1269;10148;-80
2021/11/19 17:47:26;;;;;;;;;;;;;;;;;;112054;1267;8019;-85
2021/11/19 17:49:58;;;;;;;;;;;;;;;;;;111906;1268;7993;-79
2021/11/19 17:52:27;;;;;;;;;;;;;;;;;;112061;1267;7952;-77
2021/11/19 17:54:59;;;;;;;;;;;;;;;;;;111993;1266;9681;-80
2021/11/19 17:57:32;;;;;;;;;;;;;;;;;;112081;1267;9692;-81
2021/11/19 18:00:06;;;;;;;;;;;;;;;;;;112009;1265;8774;-81
2021/11/19 18:02:34;;;;;;;;;;;;;;;;;;112160;1267;8758;-82